Washington, OH (43749)

11:05 AM EST on February 13, 2016 (GMT -0500)
Kimbolton Ohio | | Change Station
CLOSE
Current Station
Personal Weather Station
Location: Kimbolton, OH
Elevation: 804 ft
Nearby Weather Stations
Active Advisory: Winter Weather Statement Active Notice: Public Information Statement

Elev 804 ft 40.15 °N, 81.56 °W | Updated 31 seconds ago

Clear
Clear
14.4 °F
Feels Like 3 °F
N
8.9
Wind Variable Wind from West
Gusts 10.3 mph

Today
High -- | Low -- °F
--% Chance of Precip.
Yesterday
High -- | Low -- °F
Precip. -- in
Pressure 30.49 in
Visibility 10.0 miles
Clouds Few 3000 ft
Windchill 3 °F
Dew Point -11 °F
Humidity 31%
Rainfall 0.00 in
Snow Depth Not available.
7:22 AM 5:59 PM
Waxing Crescent, 32% visible
METAR KPHD 131553Z AUTO 30011KT 10SM FEW030 M13/M20 A3044 RMK AO2 SLP325 T11331200
Pressure 30.49 in
Visibility 10.0 miles
Clouds Few 3000 ft
Windchill 3 °F
Dew Point -11 °F
Humidity 31%
Rainfall 0.00 in
Snow Depth Not available.
7:22 AM 5:59 PM
Waxing Crescent, 32% visible
METAR KPHD 131553Z AUTO 30011KT 10SM FEW030 M13/M20 A3044 RMK AO2 SLP325 T11331200

10-Day Weather Forecast

Almanac

Astronomy

Feb. 13, 2016 Rise Set
Actual Time
Civil Twilight
Nautical Twilight
Astronomical Twilight
Moon
Length of Visible Light
Length of Day
Tomorrow will be .
, % of the Moon is Illuminated

Today's Extremes

State Highs State Lows

Community

WunderPhotos

Upload Photos

1,892,595 photos uploaded!

WunderBlog® & News

Nearby

Air Quality

  Air Quality AQ Index Pollutant
Not available.

Snow Depth

Station Depth Elevation

Earthquake Activity

City Distance Mag. Time & Date
Minimum magnitude displayed is 2.5.

Coastal Water Temperatures

Place Temperature

Stations

Nearby Weather Stations

Station Location Temp. Windchill Dew Point Humidity Wind Precip. Elev Updated Type
                   

Watches & Warnings

Winter Weather Statement
Issued: 10:57 AM EST Feb. 13, 2016 – National Weather Service

... Wind Chill Advisory will expire at 11 am EST this morning...

Wind chill values are now warmer than 10 below across the
region... thus the Wind Chill Advisory has been allowed to expire.
However... values between zero and 10 below will persist through
the afternoon... and limited outdoor exposure is still advised.